Time;durP1;ratioP1;P1;durP2;ratioP2;P2;SDS_P1;SDS_P2;PMS_P1;PMS_P2;Temp;Humidity;BMP_temperature;BMP_pressure;BME280_temperature;BME280_humidity;BME280_pressure;Samples;Min_cycle;Max_cycle;Signal;HPM_P1;HPM_P2
2022/10/11 00:00:18;;;;;;;11.73;2.53;;;8.70;99.90;;;;;;5019046;28;20034;-60
2022/10/11 00:02:45;;;;;;;9.90;2.45;;;8.80;99.90;;;;;;5016516;28;20123;-60
2022/10/11 00:05:11;;;;;;;11.15;2.25;;;8.60;99.90;;;;;;5007042;28;20488;-60
2022/10/11 00:07:38;;;;;;;10.93;2.30;;;8.60;99.90;;;;;;5003153;28;20116;-60
2022/10/11 00:10:05;;;;;;;11.60;2.38;;;8.50;99.90;;;;;;4991270;28;20484;-60
2022/10/11 00:12:31;;;;;;;14.25;2.65;;;8.50;99.90;;;;;;4989717;28;20401;-61
2022/10/11 00:14:57;;;;;;;12.60;1.98;;;8.40;99.90;;;;;;5018651;28;20052;-60
2022/10/11 00:17:23;;;;;;;9.23;1.80;;;8.30;99.90;;;;;;5026609;28;20373;-59
2022/10/11 00:19:48;;;;;;;12.52;2.78;;;8.30;99.90;;;;;;5023263;28;20042;-60
2022/10/11 00:22:14;;;;;;;11.60;2.38;;;8.30;99.90;;;;;;5021532;28;20412;-60
2022/10/11 00:24:40;;;;;;;10.52;1.92;;;8.20;99.90;;;;;;5021930;28;20037;-60
2022/10/11 00:27:06;;;;;;;11.82;2.28;;;8.20;99.90;;;;;;5007696;28;20407;-60
2022/10/11 00:29:31;;;;;;;10.15;1.95;;;8.10;99.90;;;;;;5024797;28;20151;-60
2022/10/11 00:31:57;;;;;;;8.52;2.17;;;8.10;99.90;;;;;;5027549;28;20045;-60
2022/10/11 00:34:23;;;;;;;11.65;1.95;;;8.00;99.90;;;;;;5025336;28;20558;-60
2022/10/11 00:36:49;;;;;;;8.50;2.30;;;8.00;99.90;;;;;;5022663;28;20064;-61
2022/10/11 00:39:14;;;;;;;8.13;2.60;;;8.00;99.90;;;;;;5021920;28;20099;-60
2022/10/11 00:41:41;;;;;;;14.18;2.50;;;7.90;99.90;;;;;;5020817;28;20041;-60
2022/10/11 00:44:22;;;;;;;8.73;2.10;;;7.90;99.90;;;;;;5019184;28;20388;-59
2022/10/11 00:46:59;;;;;;;12.95;2.88;;;7.90;99.90;;;;;;5037176;28;20037;-60
2022/10/11 00:49:34;;;;;;;9.20;2.30;;;7.90;99.90;;;;;;5023738;28;20041;-60
2022/10/11 00:52:05;;;;;;;7.75;2.35;;;7.90;99.90;;;;;;5007613;28;20060;-61
2022/10/11 00:54:34;;;;;;;13.95;3.20;;;7.90;99.90;;;;;;5017260;28;20047;-60
2022/10/11 00:57:08;;;;;;;10.85;3.22;;;7.80;99.90;;;;;;5020263;28;20405;-59
2022/10/11 00:59:36;;;;;;;;;;;7.80;99.90;;;;;;5034639;28;20045;-60
2022/10/11 01:02:03;;;;;;;8.80;2.45;;;7.80;99.90;;;;;;5019289;28;19936;-60
2022/10/11 01:04:28;;;;;;;11.50;3.45;;;7.70;99.90;;;;;;5013329;28;20034;-60
2022/10/11 01:06:56;;;;;;;16.73;4.85;;;7.70;99.90;;;;;;5020667;28;20037;-59
2022/10/11 01:09:22;;;;;;;9.40;3.55;;;7.60;99.90;;;;;;5009039;28;20132;-61
2022/10/11 01:11:50;;;;;;;10.57;3.38;;;7.60;99.90;;;;;;5021401;28;20112;-61
2022/10/11 01:14:45;;;;;;;9.90;3.83;;;7.60;99.90;;;;;;5022451;28;20135;-60
2022/10/11 01:17:20;;;;;;;13.75;4.00;;;7.60;99.90;;;;;;5026815;28;20487;-59
2022/10/11 01:20:01;;;;;;;15.60;4.20;;;7.60;99.90;;;;;;5030641;28;20507;-60
2022/10/11 01:22:51;;;;;;;12.88;4.00;;;7.50;99.90;;;;;;5026678;28;20052;-60
2022/10/11 01:25:20;;;;;;;13.05;4.28;;;7.50;99.90;;;;;;5026941;28;20047;-61
2022/10/11 01:28:36;;;;;;;9.00;3.80;;;7.50;99.90;;;;;;5028603;28;20452;-60
2022/10/11 01:31:39;;;;;;;11.57;4.40;;;7.50;99.90;;;;;;4929416;28;20092;-61
2022/10/11 01:34:16;;;;;;;13.80;3.70;;;7.50;99.90;;;;;;4982294;28;20106;-60
2022/10/11 01:36:46;;;;;;;11.73;3.17;;;7.50;99.90;;;;;;5035467;28;20420;-60
2022/10/11 01:39:17;;;;;;;11.68;3.63;;;7.40;99.90;;;;;;5033676;28;20041;-60
2022/10/11 01:41:48;;;;;;;12.70;3.80;;;7.40;99.90;;;;;;5036515;28;20091;-60
2022/10/11 01:44:15;;;;;;;11.52;3.45;;;7.30;99.90;;;;;;5037062;28;20025;-60
2022/10/11 01:46:41;;;;;;;9.65;2.53;;;7.40;99.90;;;;;;5041684;28;20037;-60
2022/10/11 01:49:07;;;;;;;9.32;2.67;;;7.30;99.90;;;;;;5033793;28;20381;-60
2022/10/11 01:51:38;;;;;;;16.15;4.30;;;7.30;99.90;;;;;;5028449;28;20037;-60
2022/10/11 01:54:39;;;;;;;13.13;2.70;;;7.30;99.90;;;;;;5042189;28;20036;-60
2022/10/11 01:57:59;;;;;;;8.30;2.65;;;7.30;99.90;;;;;;5037196;28;20033;-60
2022/10/11 02:00:30;;;;;;;8.90;2.25;;;7.30;99.90;;;;;;4941616;28;20047;-59
2022/10/11 02:03:02;;;;;;;10.38;2.33;;;7.30;99.90;;;;;;5022894;28;20037;-60
2022/10/11 02:05:53;;;;;;;16.30;3.55;;;7.20;99.90;;;;;;5033488;28;20037;-59
2022/10/11 02:08:33;;;;;;;5.60;1.63;;;7.20;99.90;;;;;;5037686;28;20044;-59
2022/10/11 02:11:20;;;;;;;11.52;2.25;;;7.20;99.90;;;;;;5035261;28;20282;-59
2022/10/11 02:14:17;;;;;;;8.15;2.28;;;7.20;99.90;;;;;;5043290;28;20059;-60
2022/10/11 02:16:47;;;;;;;10.13;2.20;;;7.10;99.90;;;;;;5046900;28;20080;-58
2022/10/11 02:19:20;;;;;;;11.15;3.17;;;7.10;99.90;;;;;;5030464;28;20110;-60
2022/10/11 02:21:52;;;;;;;9.73;2.47;;;7.10;99.90;;;;;;5045046;28;22113;-60
2022/10/11 02:24:23;;;;;;;8.85;2.55;;;7.10;99.90;;;;;;5030251;28;20033;-60
2022/10/11 02:26:53;;;;;;;12.40;2.42;;;7.10;99.90;;;;;;5029751;28;20043;-61
2022/10/11 02:29:22;;;;;;;8.15;2.50;;;7.10;99.90;;;;;;5048456;28;20045;-60
2022/10/11 02:31:49;;;;;;;8.43;2.00;;;7.00;99.90;;;;;;5043675;28;20416;-61
2022/10/11 02:34:32;;;;;;;9.55;2.70;;;7.00;99.90;;;;;;5047277;28;20095;-60
2022/10/11 02:37:23;;;;;;;10.45;1.65;;;7.00;99.90;;;;;;5044387;28;20079;-60
2022/10/11 02:39:57;;;;;;;9.65;1.60;;;7.00;99.90;;;;;;5020134;28;20120;-60
2022/10/11 02:42:28;;;;;;;9.40;2.05;;;6.90;99.90;;;;;;5025683;28;20411;-60
2022/10/11 02:45:24;;;;;;;7.80;1.45;;;6.90;99.90;;;;;;5029909;28;20123;-59
2022/10/11 02:47:50;;;;;;;7.07;1.67;;;6.90;99.90;;;;;;5035264;28;20060;-59
2022/10/11 02:50:16;;;;;;;12.02;1.80;;;6.90;99.90;;;;;;5042862;28;20119;-58
2022/10/11 02:52:42;;;;;;;14.88;2.75;;;6.90;99.90;;;;;;5045329;28;20461;-59
2022/10/11 02:55:09;;;;;;;10.02;1.80;;;6.90;99.90;;;;;;5033311;28;20037;-60
2022/10/11 02:57:34;;;;;;;8.73;2.20;;;7.00;99.90;;;;;;5038120;28;20033;-60
2022/10/11 03:00:00;;;;;;;9.70;2.10;;;6.90;99.90;;;;;;5027438;28;20091;-60
2022/10/11 03:02:26;;;;;;;11.63;1.83;;;6.90;99.90;;;;;;5022199;28;20136;-60
2022/10/11 03:04:52;;;;;;;11.05;1.70;;;7.00;99.90;;;;;;5006274;28;20491;-61
2022/10/11 03:07:17;;;;;;;7.82;2.08;;;6.90;99.90;;;;;;5022788;28;20071;-60
2022/10/11 03:09:44;;;;;;;9.40;2.30;;;7.00;99.90;;;;;;5034467;28;20681;-59
2022/10/11 03:12:10;;;;;;;8.70;1.77;;;7.00;99.90;;;;;;5008729;28;20045;-61
2022/10/11 03:14:35;;;;;;;10.10;1.92;;;7.10;99.90;;;;;;5035463;28;20037;-60
2022/10/11 03:17:01;;;;;;;6.35;1.40;;;7.10;99.90;;;;;;5031440;28;20522;-60
2022/10/11 03:19:27;;;;;;;12.63;1.60;;;7.10;99.90;;;;;;5011281;28;20099;-60
2022/10/11 03:21:52;;;;;;;12.85;1.98;;;7.10;99.90;;;;;;5026620;28;20518;-61
2022/10/11 03:24:18;;;;;;;6.43;1.50;;;7.50;99.90;;;;;;5035814;28;20044;-60
2022/10/11 03:26:44;;;;;;;6.03;1.73;;;7.10;99.90;;;;;;5016569;28;20520;-60
2022/10/11 03:29:09;;;;;;;7.80;1.58;;;7.10;99.90;;;;;;5010688;28;20048;-61
2022/10/11 03:31:35;;;;;;;15.73;2.10;;;7.20;99.90;;;;;;5031733;28;20041;-60
2022/10/11 03:34:01;;;;;;;11.05;1.80;;;7.20;99.90;;;;;;5025442;28;20051;-59
2022/10/11 03:36:27;;;;;;;13.68;2.45;;;7.30;99.90;;;;;;5028602;28;20404;-60
2022/10/11 03:38:52;;;;;;;8.68;1.83;;;7.30;99.90;;;;;;5049002;28;20510;-61
2022/10/11 03:41:18;;;;;;;11.48;1.60;;;7.30;99.90;;;;;;5030380;28;20128;-61
2022/10/11 03:43:44;;;;;;;10.65;2.10;;;7.30;99.90;;;;;;5044529;28;20037;-58
2022/10/11 03:46:09;;;;;;;8.40;1.90;;;7.30;99.90;;;;;;5043071;28;20116;-60
2022/10/11 03:48:35;;;;;;;12.60;2.65;;;7.30;99.90;;;;;;5036695;28;20041;-60
2022/10/11 03:51:01;;;;;;;9.93;1.67;;;7.40;99.90;;;;;;5040659;28;20068;-61
2022/10/11 03:53:27;;;;;;;12.70;2.20;;;7.40;99.90;;;;;;5043134;28;20407;-60
2022/10/11 03:55:55;;;;;;;8.98;1.80;;;7.40;99.90;;;;;;5020322;28;20041;-60
2022/10/11 03:58:22;;;;;;;14.35;1.73;;;7.50;99.90;;;;;;5038675;28;20045;-61
2022/10/11 04:00:48;;;;;;;8.48;1.75;;;7.60;99.90;;;;;;5044218;28;20704;-60
2022/10/11 04:03:14;;;;;;;9.95;2.00;;;7.60;99.90;;;;;;5037890;28;20045;-61
2022/10/11 04:05:40;;;;;;;12.15;2.13;;;7.70;99.90;;;;;;5011497;28;20044;-61
2022/10/11 04:08:06;;;;;;;9.90;2.08;;;7.70;99.90;;;;;;5011536;28;20036;-60
2022/10/11 04:10:31;;;;;;;9.48;2.28;;;7.70;99.90;;;;;;5036642;28;20119;-60
2022/10/11 04:12:57;;;;;;;10.82;2.33;;;7.70;99.90;;;;;;5025994;28;20086;-59
2022/10/11 04:15:23;;;;;;;6.72;1.70;;;7.70;99.90;;;;;;5051649;28;20499;-59
2022/10/11 04:17:49;;;;;;;14.75;2.70;;;7.70;99.90;;;;;;5045779;28;20041;-59
2022/10/11 04:22:43;;;;;;;11.18;2.00;;;7.70;99.90;;;;;;4985667;28;20398;-62
2022/10/11 04:25:09;;;;;;;12.07;2.13;;;7.80;99.90;;;;;;4970530;28;20034;-62
2022/10/11 04:27:35;;;;;;;11.73;2.15;;;7.70;99.90;;;;;;4967109;28;20188;-61
2022/10/11 04:30:01;;;;;;;11.07;2.00;;;7.70;99.90;;;;;;4948689;28;20125;-62
2022/10/11 04:32:27;;;;;;;11.98;2.17;;;7.70;99.90;;;;;;4945004;28;20062;-62
2022/10/11 04:34:52;;;;;;;15.02;2.13;;;7.70;99.90;;;;;;4958653;28;20410;-61
2022/10/11 04:37:18;;;;;;;9.02;1.92;;;7.70;99.90;;;;;;4972094;28;20098;-61
2022/10/11 04:39:44;;;;;;;6.57;1.35;;;7.60;99.90;;;;;;4940003;28;20150;-62
2022/10/11 04:42:10;;;;;;;10.43;1.95;;;7.60;99.90;;;;;;4965302;28;20506;-62
2022/10/11 04:44:36;;;;;;;11.60;1.67;;;7.60;99.90;;;;;;4935087;28;20051;-60
2022/10/11 04:47:03;;;;;;;12.40;2.10;;;7.60;99.90;;;;;;4966045;28;20112;-62
2022/10/11 04:49:28;;;;;;;14.13;2.45;;;7.60;99.90;;;;;;4914362;28;20395;-62
2022/10/11 04:51:54;;;;;;;7.15;1.63;;;7.60;99.90;;;;;;4935711;28;20043;-60
2022/10/11 04:54:20;;;;;;;9.73;2.70;;;7.50;99.90;;;;;;4934984;28;20101;-61
2022/10/11 04:56:45;;;;;;;10.88;2.45;;;7.50;99.90;;;;;;4952595;28;20542;-59
2022/10/11 04:59:11;;;;;;;10.90;2.20;;;7.40;99.90;;;;;;4934082;28;20043;-60
2022/10/11 05:01:37;;;;;;;9.95;2.10;;;7.40;99.90;;;;;;4925274;28;20410;-60
2022/10/11 05:04:03;;;;;;;10.27;2.33;;;7.40;99.90;;;;;;4927940;28;20047;-60
2022/10/11 05:06:29;;;;;;;11.75;1.90;;;7.40;99.90;;;;;;4951989;28;20113;-62
2022/10/11 05:08:54;;;;;;;8.82;2.30;;;7.40;99.90;;;;;;4966727;28;20134;-62
2022/10/11 05:11:20;;;;;;;7.00;1.67;;;7.40;99.90;;;;;;4958384;28;20045;-61
2022/10/11 05:13:46;;;;;;;6.60;2.05;;;7.30;99.90;;;;;;4959955;28;20035;-62
2022/10/11 05:16:13;;;;;;;8.55;2.03;;;7.30;99.90;;;;;;4930599;28;20046;-60
2022/10/11 05:18:39;;;;;;;9.18;3.05;;;7.30;99.90;;;;;;4954740;28;20034;-61
2022/10/11 05:21:09;;;;;;;12.57;3.30;;;7.30;99.90;;;;;;4955782;28;20286;-62
2022/10/11 05:23:36;;;;;;;10.18;2.10;;;7.30;99.90;;;;;;4947614;28;20046;-61
2022/10/11 05:26:02;;;;;;;11.77;3.22;;;7.30;99.90;;;;;;4950444;28;20074;-61
2022/10/11 05:28:28;;;;;;;12.20;3.50;;;7.20;99.90;;;;;;4960369;28;20793;-62
2022/10/11 05:30:54;;;;;;;13.57;2.53;;;7.30;99.90;;;;;;4922261;28;20110;-61
2022/10/11 05:33:20;;;;;;;7.75;2.13;;;7.20;99.90;;;;;;4926452;28;20043;-62
2022/10/11 05:35:46;;;;;;;11.18;2.65;;;7.20;99.90;;;;;;4939990;28;20043;-62
2022/10/11 05:38:12;;;;;;;10.95;2.83;;;7.20;99.90;;;;;;4938311;28;20081;-62
2022/10/11 05:40:39;;;;;;;8.70;2.00;;;7.20;99.90;;;;;;4958001;28;20117;-61
2022/10/11 05:43:05;;;;;;;12.90;2.20;;;7.20;99.90;;;;;;4931719;28;20397;-62
2022/10/11 05:45:33;;;;;;;14.68;3.15;;;7.20;99.90;;;;;;4947739;28;20049;-61
2022/10/11 05:47:59;;;;;;;9.73;2.30;;;7.20;99.90;;;;;;4948132;28;20035;-62
2022/10/11 05:50:25;;;;;;;12.65;2.95;;;7.20;99.90;;;;;;4938815;28;20045;-62
2022/10/11 05:52:50;;;;;;;10.25;2.78;;;7.20;99.90;;;;;;4937446;28;20279;-62
2022/10/11 05:55:16;;;;;;;14.55;3.42;;;7.20;99.90;;;;;;4952265;28;20066;-62
2022/10/11 05:57:43;;;;;;;11.48;2.10;;;7.10;99.90;;;;;;4931860;28;20082;-60
2022/10/11 06:00:09;;;;;;;11.50;2.60;;;7.10;99.90;;;;;;4936443;28;20054;-62
2022/10/11 06:02:35;;;;;;;8.38;2.17;;;7.20;99.90;;;;;;4955439;28;20494;-62
2022/10/11 06:05:01;;;;;;;13.80;2.47;;;7.20;99.90;;;;;;4958935;28;20038;-61
2022/10/11 06:07:27;;;;;;;12.15;2.90;;;7.20;99.90;;;;;;4936340;28;20434;-60
2022/10/11 06:09:53;;;;;;;9.65;2.00;;;7.20;99.90;;;;;;4957535;28;20050;-60
2022/10/11 06:12:20;;;;;;;9.82;2.63;;;7.20;99.90;;;;;;4951549;28;20048;-61
2022/10/11 06:14:46;;;;;;;8.63;1.67;;;7.30;99.90;;;;;;4940115;28;20041;-62
2022/10/11 06:17:12;;;;;;;8.85;2.10;;;7.30;99.90;;;;;;4947009;28;20051;-62
2022/10/11 06:19:37;;;;;;;14.00;2.05;;;7.30;99.90;;;;;;4968142;28;20107;-60
2022/10/11 06:22:03;;;;;;;7.13;1.65;;;7.40;99.90;;;;;;4940063;28;20383;-61
2022/10/11 06:24:29;;;;;;;13.32;2.65;;;7.40;99.90;;;;;;4943994;28;20050;-61
2022/10/11 06:26:55;;;;;;;11.02;1.88;;;7.40;99.90;;;;;;4936407;28;20046;-61
2022/10/11 06:29:21;;;;;;;15.38;2.70;;;7.50;99.90;;;;;;4945329;28;20064;-61
2022/10/11 06:31:47;;;;;;;8.70;1.95;;;7.50;99.90;;;;;;4924930;28;20039;-61
2022/10/11 06:34:13;;;;;;;10.82;2.28;;;7.60;99.90;;;;;;4939994;28;20063;-60
2022/10/11 06:36:39;;;;;;;10.70;2.70;;;7.70;99.90;;;;;;4942299;28;20035;-60
2022/10/11 06:39:05;;;;;;;9.60;2.42;;;7.80;99.90;;;;;;4958963;28;20097;-59
2022/10/11 06:41:30;;;;;;;15.40;3.08;;;7.90;99.90;;;;;;4948045;28;20068;-60
2022/10/11 06:43:56;;;;;;;8.48;2.42;;;8.00;99.90;;;;;;4947906;28;20446;-60
2022/10/11 06:46:25;;;;;;;13.13;2.30;;;8.20;99.90;;;;;;4940314;28;20077;-61
2022/10/11 06:48:51;;;;;;;12.60;2.20;;;8.30;99.90;;;;;;4965033;28;20142;-61
2022/10/11 06:51:19;;;;;;;10.38;2.25;;;8.70;99.90;;;;;;4966466;28;20047;-61
2022/10/11 06:53:50;;;;;;;11.77;2.55;;;8.90;99.90;;;;;;4958980;28;20176;-62
2022/10/11 06:56:16;;;;;;;13.30;3.85;;;8.90;99.90;;;;;;4962984;28;20574;-62
2022/10/11 06:58:42;;;;;;;9.70;2.97;;;8.90;99.90;;;;;;4963751;28;20044;-62
2022/10/11 07:01:11;;;;;;;16.10;2.67;;;8.90;99.90;;;;;;4938621;28;20100;-59
2022/10/11 07:03:37;;;;;;;19.67;3.95;;;9.00;99.90;;;;;;4958878;28;20042;-62
2022/10/11 07:06:09;;;;;;;13.82;2.78;;;9.00;99.90;;;;;;4969733;28;20078;-61
2022/10/11 07:08:35;;;;;;;12.93;2.47;;;9.00;99.90;;;;;;4939921;28;20489;-62
2022/10/11 07:11:03;;;;;;;11.40;2.85;;;9.00;99.90;;;;;;4937238;28;20106;-60
2022/10/11 07:13:29;;;;;;;11.43;1.83;;;9.10;99.90;;;;;;4934457;28;20758;-60
2022/10/11 07:15:55;;;;;;;12.18;3.38;;;9.10;99.90;;;;;;4957179;28;20329;-60
2022/10/11 07:18:22;;;;;;;16.02;2.95;;;9.10;99.90;;;;;;4932346;28;20185;-59
2022/10/11 07:20:48;;;;;;;14.00;2.88;;;9.20;99.90;;;;;;4938924;28;20044;-63
2022/10/11 07:23:14;;;;;;;11.30;2.38;;;9.20;99.90;;;;;;4927754;28;20668;-60
2022/10/11 07:25:40;;;;;;;16.15;3.83;;;9.20;99.90;;;;;;4940716;28;20222;-60
2022/10/11 07:28:05;;;;;;;11.18;2.30;;;9.20;99.90;;;;;;4956268;28;20039;-61
2022/10/11 07:30:31;;;;;;;9.63;2.33;;;9.20;99.90;;;;;;4935259;28;20105;-62
2022/10/11 07:32:57;;;;;;;15.00;3.10;;;9.30;99.90;;;;;;4951025;28;20065;-62
2022/10/11 07:35:23;;;;;;;16.15;2.55;;;9.40;99.90;;;;;;4953172;28;20046;-62
2022/10/11 07:37:48;;;;;;;14.25;3.35;;;9.50;99.90;;;;;;4958631;28;20053;-61
2022/10/11 07:40:14;;;;;;;11.30;2.45;;;9.70;99.90;;;;;;4958698;28;20035;-60
2022/10/11 07:42:40;;;;;;;16.55;2.70;;;9.80;99.90;;;;;;4950954;28;20047;-61
2022/10/11 07:45:06;;;;;;;13.75;2.67;;;10.00;99.90;;;;;;4947918;28;20486;-60
2022/10/11 07:47:31;;;;;;;12.77;2.35;;;10.10;99.90;;;;;;4950219;28;20121;-58
2022/10/11 07:49:57;;;;;;;13.73;2.10;;;10.30;99.90;;;;;;4949452;28;20118;-60
2022/10/11 07:52:23;;;;;;;13.27;2.35;;;10.50;99.90;;;;;;4957175;28;20178;-59
2022/10/11 07:54:48;;;;;;;15.18;2.22;;;10.60;99.90;;;;;;4947321;28;20081;-62
2022/10/11 07:57:14;;;;;;;14.00;3.10;;;10.70;99.90;;;;;;4963780;28;20490;-61
2022/10/11 07:59:40;;;;;;;12.43;2.92;;;10.80;99.90;;;;;;4948006;28;20062;-62
2022/10/11 08:02:12;;;;;;;9.55;2.70;;;10.80;99.90;;;;;;4970104;28;20582;-63
2022/10/11 08:04:38;;;;;;;11.65;2.30;;;10.90;99.90;;;;;;4949192;28;20126;-62
2022/10/11 08:07:05;;;;;;;9.73;3.45;;;10.90;99.90;;;;;;4952736;28;20073;-61
2022/10/11 08:09:31;;;;;;;11.63;2.65;;;11.00;99.90;;;;;;4947088;28;20076;-61
2022/10/11 08:11:56;;;;;;;9.82;2.50;;;11.10;99.90;;;;;;4964725;28;20084;-62
2022/10/11 08:14:22;;;;;;;18.38;4.60;;;11.30;99.90;;;;;;4937382;28;20535;-60
2022/10/11 08:16:49;;;;;;;10.98;2.45;;;11.40;99.90;;;;;;4970050;28;20049;-63
2022/10/11 08:19:17;;;;;;;12.68;2.30;;;11.60;99.90;;;;;;4961033;28;20047;-60
2022/10/11 08:21:43;;;;;;;14.23;2.45;;;11.70;99.90;;;;;;4945767;28;20729;-61
2022/10/11 08:24:12;;;;;;;13.45;2.65;;;11.90;99.90;;;;;;4958604;28;20046;-62
2022/10/11 08:26:39;;;;;;;10.95;2.47;;;12.00;99.90;;;;;;4951754;28;20367;-62
2022/10/11 08:29:05;;;;;;;13.80;2.30;;;12.10;99.90;;;;;;4946332;28;20529;-62
2022/10/11 08:31:32;;;;;;;12.65;2.65;;;12.20;99.90;;;;;;4952816;28;20081;-62
2022/10/11 08:33:58;;;;;;;14.98;2.72;;;12.40;99.90;;;;;;4947128;28;20051;-62
2022/10/11 08:36:24;;;;;;;13.73;3.15;;;12.50;99.90;;;;;;4938017;28;20047;-61
2022/10/11 08:38:49;;;;;;;15.80;2.42;;;12.60;99.90;;;;;;4947756;28;20568;-62
2022/10/11 08:41:30;;;;;;;13.05;2.50;;;12.70;99.90;;;;;;4933966;28;20038;-62
2022/10/11 08:44:30;;;;;;;12.73;3.47;;;12.80;99.90;;;;;;4954149;28;20049;-62
2022/10/11 08:47:05;;;;;;;16.83;2.88;;;12.70;99.90;;;;;;4960887;28;20447;-61
2022/10/11 08:49:32;;;;;;;15.63;2.83;;;12.70;99.90;;;;;;4960231;28;20043;-61
2022/10/11 08:52:09;;;;;;;13.75;2.47;;;12.60;99.90;;;;;;4931701;28;20046;-61
2022/10/11 08:54:48;;;;;;;11.40;2.25;;;12.60;99.90;;;;;;4960494;28;20383;-60
2022/10/11 08:57:26;;;;;;;16.08;3.00;;;12.60;99.90;;;;;;4941319;28;20402;-63
2022/10/11 09:00:06;;;;;;;14.85;3.25;;;12.80;99.90;;;;;;4959671;28;20402;-63
2022/10/11 09:02:44;;;;;;;13.65;2.90;;;13.00;99.90;;;;;;4944376;28;20453;-62
2022/10/11 09:05:15;;;;;;;14.50;2.47;;;13.20;99.90;;;;;;4923850;28;20370;-64
2022/10/11 09:08:33;;;;;;;8.57;2.03;;;13.40;99.90;;;;;;4927893;28;20039;-61
2022/10/11 09:11:36;;;;;;;15.90;2.63;;;13.60;99.90;;;;;;4902485;28;20062;-63
2022/10/11 09:14:43;;;;;;;10.90;2.40;;;13.90;99.90;;;;;;4937033;28;20302;-63
2022/10/11 09:17:22;;;;;;;14.50;2.40;;;14.10;99.90;;;;;;4935352;28;20066;-61
2022/10/11 09:20:18;;;;;;;13.50;2.15;;;14.30;99.90;;;;;;4938550;28;20054;-62
2022/10/11 09:22:58;;;;;;;10.98;2.67;;;14.50;99.90;;;;;;4938266;28;20137;-61
2022/10/11 09:25:43;;;;;;;9.98;2.58;;;14.70;99.90;;;;;;4933032;28;20043;-63
2022/10/11 09:28:31;;;;;;;13.45;2.42;;;14.80;99.90;;;;;;4939265;28;20031;-62
2022/10/11 09:30:58;;;;;;;14.48;2.83;;;14.90;99.90;;;;;;4935994;28;20398;-61
2022/10/11 09:33:34;;;;;;;14.43;2.22;;;15.00;99.90;;;;;;4909732;28;20039;-61
2022/10/11 09:36:10;;;;;;;27.23;3.03;;;15.10;99.90;;;;;;4941677;28;20043;-60
2022/10/11 09:38:46;;;;;;;6.75;1.73;;;15.20;99.90;;;;;;4928209;28;20458;-63
2022/10/11 09:41:28;;;;;;;10.00;2.63;;;15.40;99.90;;;;;;4923483;28;20077;-63
2022/10/11 09:43:53;;;;;;;9.30;2.70;;;15.50;99.90;;;;;;4943384;28;20045;-60
2022/10/11 09:46:36;;;;;;;9.90;2.10;;;15.60;99.90;;;;;;4910376;28;20047;-61
2022/10/11 09:49:06;;;;;;;8.35;1.95;;;15.60;99.90;;;;;;4934256;28;20035;-62
2022/10/11 09:51:33;;;;;;;14.73;2.40;;;15.60;99.90;;;;;;4938796;28;20039;-62
2022/10/11 09:54:01;;;;;;;12.57;2.17;;;15.70;99.90;;;;;;4939060;28;20450;-63
2022/10/11 09:56:29;;;;;;;13.63;2.33;;;15.80;99.90;;;;;;4940735;28;20397;-63
2022/10/11 09:59:26;;;;;;;10.60;1.90;;;15.80;99.90;;;;;;4947830;28;20039;-63
2022/10/11 10:02:18;;;;;;;9.90;1.88;;;15.70;99.90;;;;;;4926593;28;20382;-62
2022/10/11 10:05:12;;;;;;;9.93;2.05;;;15.70;99.90;;;;;;4945214;28;20431;-62
2022/10/11 10:07:39;;;;;;;13.13;2.00;;;15.50;99.90;;;;;;4909941;28;20086;-62
2022/10/11 10:10:28;;;;;;;15.45;2.05;;;15.50;99.90;;;;;;4936050;28;20455;-62
2022/10/11 10:13:00;;;;;;;10.93;2.78;;;15.60;99.90;;;;;;4924772;28;20133;-62
2022/10/11 10:15:29;;;;;;;10.02;2.70;;;15.80;99.90;;;;;;4945823;28;20082;-62
2022/10/11 10:17:56;;;;;;;10.15;2.55;;;16.00;99.90;;;;;;4943766;28;20074;-63
2022/10/11 10:20:33;;;;;;;9.00;1.98;;;16.20;99.90;;;;;;4961942;28;20397;-63
2022/10/11 10:23:07;;;;;;;12.02;2.45;;;16.40;99.90;;;;;;5021144;23;20041;-61
2022/10/11 10:25:38;;;;;;;11.38;2.15;;;16.60;99.90;;;;;;4984951;28;20053;-61
2022/10/11 10:28:25;;;;;;;5.82;1.75;;;16.70;99.90;;;;;;5019836;28;20420;-61
2022/10/11 10:30:58;;;;;;;8.40;1.95;;;16.80;99.30;;;;;;5010513;28;20344;-63
2022/10/11 10:33:28;;;;;;;13.07;1.90;;;16.80;98.30;;;;;;5020324;28;20144;-64
2022/10/11 10:36:01;;;;;;;9.35;2.30;;;16.70;97.90;;;;;;5026573;28;20064;-63
2022/10/11 10:38:36;;;;;;;9.38;1.60;;;16.60;99.60;;;;;;5004611;28;20511;-64
2022/10/11 10:41:13;;;;;;;9.38;1.90;;;16.40;99.80;;;;;;5022595;28;20119;-64
2022/10/11 10:43:41;;;;;;;12.05;3.13;;;16.20;99.90;;;;;;5020758;28;20038;-63
2022/10/11 10:46:28;;;;;;;10.75;2.25;;;16.30;99.90;;;;;;5031074;28;20041;-62
2022/10/11 10:49:15;;;;;;;6.85;2.03;;;16.10;98.70;;;;;;5002332;28;20061;-63
2022/10/11 10:51:50;;;;;;;13.50;2.25;;;16.20;99.40;;;;;;5041797;28;20049;-63
2022/10/11 10:54:35;;;;;;;10.75;2.35;;;16.20;98.80;;;;;;5007589;28;20512;-64
2022/10/11 10:57:09;;;;;;;7.75;1.60;;;16.20;99.00;;;;;;4995373;28;20428;-65
2022/10/11 11:00:06;;;;;;;13.48;1.90;;;16.10;98.90;;;;;;5001406;28;20974;-64
2022/10/11 11:03:01;;;;;;;14.93;2.33;;;15.90;99.30;;;;;;5006915;28;20436;-64
2022/10/11 11:05:53;;;;;;;12.93;2.47;;;15.70;99.30;;;;;;5009430;28;20294;-65
2022/10/11 11:08:30;;;;;;;12.48;2.15;;;15.50;99.60;;;;;;5011586;28;20103;-64
2022/10/11 11:11:02;;;;;;;9.80;1.50;;;15.20;99.00;;;;;;5013465;28;20048;-64
2022/10/11 11:13:57;;;;;;;7.00;1.92;;;15.20;99.90;;;;;;5008895;28;20399;-63
2022/10/11 11:16:22;;;;;;;9.02;1.90;;;15.20;99.90;;;;;;5026284;28;20061;-64
2022/10/11 11:19:05;;;;;;;12.20;2.33;;;15.50;99.90;;;;;;4995897;28;20033;-64
2022/10/11 11:22:00;;;;;;;10.35;1.70;;;15.70;99.10;;;;;;4978846;28;20078;-64
2022/10/11 11:24:28;;;;;;;8.68;1.90;;;15.60;99.00;;;;;;4991946;28;20556;-63
2022/10/11 11:26:56;;;;;;;6.68;2.17;;;15.40;99.50;;;;;;4999875;28;20100;-63
2022/10/11 11:29:32;;;;;;;7.57;1.70;;;15.40;99.60;;;;;;4988700;28;20151;-64
2022/10/11 11:32:16;;;;;;;12.38;2.67;;;15.60;99.60;;;;;;4988329;28;20409;-64
2022/10/11 11:35:00;;;;;;;12.70;2.33;;;15.80;98.80;;;;;;5002022;28;20084;-64
2022/10/11 11:37:37;;;;;;;10.80;2.42;;;16.10;99.20;;;;;;5017748;28;20048;-63
2022/10/11 11:40:36;;;;;;;6.88;1.83;;;16.00;99.50;;;;;;5000014;28;20042;-63
2022/10/11 11:43:20;;;;;;;9.07;1.90;;;16.00;99.60;;;;;;5023072;28;20042;-64
2022/10/11 11:45:56;;;;;;;8.00;1.67;;;15.90;99.90;;;;;;5008844;28;20034;-63
2022/10/11 11:48:24;;;;;;;9.48;1.80;;;15.70;99.60;;;;;;5006515;28;20119;-64
2022/10/11 11:51:01;;;;;;;11.30;2.20;;;15.50;99.90;;;;;;5003418;28;20075;-63
2022/10/11 11:54:05;;;;;;;11.30;1.95;;;15.40;99.90;;;;;;5007357;28;20034;-63
2022/10/11 11:56:48;;;;;;;11.77;1.45;;;15.20;99.90;;;;;;4968710;28;20065;-62
2022/10/11 11:59:20;;;;;;;10.95;1.58;;;15.20;99.90;;;;;;5008749;28;20096;-62
2022/10/11 12:02:15;;;;;;;6.65;1.40;;;15.20;99.90;;;;;;5006352;28;20121;-63
2022/10/11 12:04:44;;;;;;;12.18;1.60;;;15.20;99.90;;;;;;5000901;28;22889;-63
2022/10/11 12:07:22;;;;;;;6.63;1.83;;;15.10;99.90;;;;;;5005240;28;20025;-62
2022/10/11 12:09:53;;;;;;;11.95;2.20;;;15.00;99.90;;;;;;5003380;28;20084;-63
2022/10/11 12:12:35;;;;;;;8.45;1.73;;;15.00;99.90;;;;;;5003181;28;20209;-64
2022/10/11 12:15:24;;;;;;;3.80;1.40;;;15.00;99.90;;;;;;4996651;28;20037;-62
2022/10/11 12:18:04;;;;;;;9.57;2.20;;;15.00;99.90;;;;;;5005448;28;20065;-63
2022/10/11 12:20:36;;;;;;;8.43;2.00;;;15.10;99.90;;;;;;5003149;28;20056;-62
2022/10/11 12:23:27;;;;;;;9.95;2.10;;;15.10;99.90;;;;;;5014732;28;20590;-64
2022/10/11 12:26:14;;;;;;;5.20;1.40;;;15.20;99.90;;;;;;5018878;28;20948;-63
2022/10/11 12:28:40;;;;;;;13.63;2.38;;;15.20;99.90;;;;;;5017174;28;20048;-63
2022/10/11 12:31:35;;;;;;;7.93;1.55;;;15.60;99.90;;;;;;4988972;28;20396;-62
2022/10/11 12:34:01;;;;;;;7.43;1.58;;;15.90;99.90;;;;;;5023921;28;20041;-63
2022/10/11 12:36:35;;;;;;;8.98;1.83;;;16.20;99.90;;;;;;5007504;28;20041;-62
2022/10/11 12:39:19;;;;;;;6.93;1.33;;;16.60;99.90;;;;;;5012566;28;20049;-63
2022/10/11 12:44:27;;;;;;;8.68;1.27;;;17.00;98.30;;;;;;5003921;28;19917;-63
2022/10/11 12:46:53;;;;;;;9.27;1.77;;;17.00;97.90;;;;;;5019078;28;20042;-63
2022/10/11 12:49:45;;;;;;;10.00;1.63;;;17.00;98.70;;;;;;5006053;28;21587;-64
2022/10/11 12:52:48;;;;;;;10.25;2.60;;;17.20;97.40;;;;;;5026513;28;20419;-64
2022/10/11 12:55:25;;;;;;;8.40;1.50;;;17.20;97.40;;;;;;5016686;28;20116;-62
2022/10/11 12:58:16;;;;;;;8.52;1.85;;;17.40;97.70;;;;;;5016919;28;20033;-63
2022/10/11 13:01:02;;;;;;;5.78;1.40;;;17.20;95.70;;;;;;5028021;28;20045;-63
2022/10/11 13:03:51;;;;;;;7.47;1.65;;;17.50;97.30;;;;;;5003981;28;20029;-65
2022/10/11 13:06:43;;;;;;;5.57;1.60;;;17.60;96.60;;;;;;4975567;28;20048;-62
2022/10/11 13:09:08;;;;;;;8.00;1.98;;;17.10;96.40;;;;;;5007679;28;20153;-65
2022/10/11 13:11:43;;;;;;;6.80;1.35;;;16.90;96.00;;;;;;5005781;28;20125;-64
2022/10/11 13:14:16;;;;;;;9.63;1.80;;;16.80;97.20;;;;;;5002531;28;20049;-63
2022/10/11 13:17:03;;;;;;;6.13;1.80;;;16.90;97.40;;;;;;5017414;28;20381;-61
2022/10/11 13:19:31;;;;;;;9.85;2.08;;;17.10;97.60;;;;;;5015809;28;20034;-63